sensor_id;sensor_type;location;lat;lon;timestamp;temperature;humidity
31975;DHT22;18500;43.618;1.474;2023-01-26T00:02:06;1.50;22.90
31975;DHT22;18500;43.618;1.474;2023-01-26T00:04:32;1.40;23.70
31975;DHT22;18500;43.618;1.474;2023-01-26T00:06:57;1.50;22.80
31975;DHT22;18500;43.618;1.474;2023-01-26T00:09:23;1.50;21.70
31975;DHT22;18500;43.618;1.474;2023-01-26T00:11:49;1.50;22.30
31975;DHT22;18500;43.618;1.474;2023-01-26T00:14:14;1.50;21.70
31975;DHT22;18500;43.618;1.474;2023-01-26T00:16:40;1.50;22.00
31975;DHT22;18500;43.618;1.474;2023-01-26T00:19:05;1.50;21.80
31975;DHT22;18500;43.618;1.474;2023-01-26T00:21:31;1.50;20.70
31975;DHT22;18500;43.618;1.474;2023-01-26T00:23:57;1.50;22.00
31975;DHT22;18500;43.618;1.474;2023-01-26T00:26:25;1.50;21.60
31975;DHT22;18500;43.618;1.474;2023-01-26T00:28:52;1.50;21.60
31975;DHT22;18500;43.618;1.474;2023-01-26T00:31:20;1.50;21.20
31975;DHT22;18500;43.618;1.474;2023-01-26T00:33:46;1.40;22.80
31975;DHT22;18500;43.618;1.474;2023-01-26T00:36:12;1.40;22.00
31975;DHT22;18500;43.618;1.474;2023-01-26T00:38:39;1.40;21.90
31975;DHT22;18500;43.618;1.474;2023-01-26T00:41:05;1.30;23.30
31975;DHT22;18500;43.618;1.474;2023-01-26T00:43:31;1.30;23.10
31975;DHT22;18500;43.618;1.474;2023-01-26T00:45:56;1.30;23.60
31975;DHT22;18500;43.618;1.474;2023-01-26T00:48:22;1.30;24.10
31975;DHT22;18500;43.618;1.474;2023-01-26T00:50:52;1.30;24.20
31975;DHT22;18500;43.618;1.474;2023-01-26T00:53:17;1.30;24.10
31975;DHT22;18500;43.618;1.474;2023-01-26T00:55:43;1.40;23.30
31975;DHT22;18500;43.618;1.474;2023-01-26T00:58:09;1.40;24.10
31975;DHT22;18500;43.618;1.474;2023-01-26T01:00:37;1.40;23.80
31975;DHT22;18500;43.618;1.474;2023-01-26T01:03:03;1.40;24.20
31975;DHT22;18500;43.618;1.474;2023-01-26T01:05:30;1.40;24.20
31975;DHT22;18500;43.618;1.474;2023-01-26T01:07:56;1.50;24.10
31975;DHT22;18500;43.618;1.474;2023-01-26T01:10:23;1.50;23.20
31975;DHT22;18500;43.618;1.474;2023-01-26T01:12:49;1.50;23.40
31975;DHT22;18500;43.618;1.474;2023-01-26T01:15:14;1.50;22.00
31975;DHT22;18500;43.618;1.474;2023-01-26T01:17:40;1.50;23.30
31975;DHT22;18500;43.618;1.474;2023-01-26T01:20:07;1.50;23.40
31975;DHT22;18500;43.618;1.474;2023-01-26T01:22:34;1.50;22.80
31975;DHT22;18500;43.618;1.474;2023-01-26T01:25:01;1.50;23.00
31975;DHT22;18500;43.618;1.474;2023-01-26T01:27:26;1.60;22.80
31975;DHT22;18500;43.618;1.474;2023-01-26T01:29:52;1.60;21.20
31975;DHT22;18500;43.618;1.474;2023-01-26T01:32:18;1.60;22.10
31975;DHT22;18500;43.618;1.474;2023-01-26T01:34:47;1.60;21.60
31975;DHT22;18500;43.618;1.474;2023-01-26T01:37:13;1.60;21.40
31975;DHT22;18500;43.618;1.474;2023-01-26T01:39:39;1.60;20.90
31975;DHT22;18500;43.618;1.474;2023-01-26T01:42:05;1.60;21.20
31975;DHT22;18500;43.618;1.474;2023-01-26T01:44:34;1.60;21.10
31975;DHT22;18500;43.618;1.474;2023-01-26T01:47:03;1.60;21.10
31975;DHT22;18500;43.618;1.474;2023-01-26T01:49:34;1.70;21.70
31975;DHT22;18500;43.618;1.474;2023-01-26T01:54:37;1.70;20.70
31975;DHT22;18500;43.618;1.474;2023-01-26T01:57:08;1.60;21.20
31975;DHT22;18500;43.618;1.474;2023-01-26T01:59:42;1.70;20.70
31975;DHT22;18500;43.618;1.474;2023-01-26T02:02:09;1.70;21.50
31975;DHT22;18500;43.618;1.474;2023-01-26T02:04:36;1.70;20.00
31975;DHT22;18500;43.618;1.474;2023-01-26T02:07:03;1.70;20.40
31975;DHT22;18500;43.618;1.474;2023-01-26T02:09:34;1.70;20.80
31975;DHT22;18500;43.618;1.474;2023-01-26T02:12:22;1.70;21.10
31975;DHT22;18500;43.618;1.474;2023-01-26T02:14:51;1.60;20.70
31975;DHT22;18500;43.618;1.474;2023-01-26T02:17:17;1.70;20.60
31975;DHT22;18500;43.618;1.474;2023-01-26T02:27:46;1.60;21.90
31975;DHT22;18500;43.618;1.474;2023-01-26T02:30:13;1.70;21.30
31975;DHT22;18500;43.618;1.474;2023-01-26T02:32:39;1.70;21.10
31975;DHT22;18500;43.618;1.474;2023-01-26T02:35:05;1.70;20.40
31975;DHT22;18500;43.618;1.474;2023-01-26T02:37:31;1.70;20.30
31975;DHT22;18500;43.618;1.474;2023-01-26T02:40:18;1.70;20.80
31975;DHT22;18500;43.618;1.474;2023-01-26T02:42:45;1.60;34.90
31975;DHT22;18500;43.618;1.474;2023-01-26T02:45:13;1.70;21.80
31975;DHT22;18500;43.618;1.474;2023-01-26T02:47:40;1.50;35.00
31975;DHT22;18500;43.618;1.474;2023-01-26T02:50:07;1.50;21.10
31975;DHT22;18500;43.618;1.474;2023-01-26T02:52:33;1.50;21.00
31975;DHT22;18500;43.618;1.474;2023-01-26T02:54:59;1.60;22.90
31975;DHT22;18500;43.618;1.474;2023-01-26T02:57:45;1.60;22.20
31975;DHT22;18500;43.618;1.474;2023-01-26T03:00:16;1.60;21.10
31975;DHT22;18500;43.618;1.474;2023-01-26T03:02:43;1.60;22.00
31975;DHT22;18500;43.618;1.474;2023-01-26T03:05:09;1.60;23.10
31975;DHT22;18500;43.618;1.474;2023-01-26T03:07:35;1.60;21.60
31975;DHT22;18500;43.618;1.474;2023-01-26T03:10:01;1.70;23.40
31975;DHT22;18500;43.618;1.474;2023-01-26T03:12:27;1.80;23.50
31975;DHT22;18500;43.618;1.474;2023-01-26T03:14:52;1.80;22.40
31975;DHT22;18500;43.618;1.474;2023-01-26T03:17:37;1.80;21.50
31975;DHT22;18500;43.618;1.474;2023-01-26T03:20:04;1.70;21.00
31975;DHT22;18500;43.618;1.474;2023-01-26T03:22:49;1.70;21.70
31975;DHT22;18500;43.618;1.474;2023-01-26T03:25:33;1.70;21.20
31975;DHT22;18500;43.618;1.474;2023-01-26T03:28:17;1.70;22.80
31975;DHT22;18500;43.618;1.474;2023-01-26T03:30:47;1.70;22.10
31975;DHT22;18500;43.618;1.474;2023-01-26T03:33:13;1.70;21.60
31975;DHT22;18500;43.618;1.474;2023-01-26T03:35:39;1.70;22.80
31975;DHT22;18500;43.618;1.474;2023-01-26T03:38:05;1.60;23.30
31975;DHT22;18500;43.618;1.474;2023-01-26T03:40:30;1.70;24.30
31975;DHT22;18500;43.618;1.474;2023-01-26T03:43:14;1.80;25.80
31975;DHT22;18500;43.618;1.474;2023-01-26T03:46:04;1.70;24.60
31975;DHT22;18500;43.618;1.474;2023-01-26T03:48:49;1.70;25.20
31975;DHT22;18500;43.618;1.474;2023-01-26T03:51:33;1.70;24.40
31975;DHT22;18500;43.618;1.474;2023-01-26T03:54:18;1.80;24.70
31975;DHT22;18500;43.618;1.474;2023-01-26T03:57:03;1.80;24.80
31975;DHT22;18500;43.618;1.474;2023-01-26T03:59:28;1.70;26.00
31975;DHT22;18500;43.618;1.474;2023-01-26T04:02:10;1.70;67.60
31975;DHT22;18500;43.618;1.474;2023-01-26T04:04:55;1.70;95.90
31975;DHT22;18500;43.618;1.474;2023-01-26T04:07:40;1.70;38.00
31975;DHT22;18500;43.618;1.474;2023-01-26T04:10:26;1.60;33.90
31975;DHT22;18500;43.618;1.474;2023-01-26T04:12:52;1.70;33.60
31975;DHT22;18500;43.618;1.474;2023-01-26T04:15:36;1.60;99.90
31975;DHT22;18500;43.618;1.474;2023-01-26T04:18:22;1.60;69.00
31975;DHT22;18500;43.618;1.474;2023-01-26T04:21:06;1.60;1.00
31975;DHT22;18500;43.618;1.474;2023-01-26T04:23:52;1.60;99.90
31975;DHT22;18500;43.618;1.474;2023-01-26T04:26:21;1.50;99.90
31975;DHT22;18500;43.618;1.474;2023-01-26T04:28:46;1.60;99.90
31975;DHT22;18500;43.618;1.474;2023-01-26T04:31:12;1.50;99.90
31975;DHT22;18500;43.618;1.474;2023-01-26T04:33:38;1.50;99.90
31975;DHT22;18500;43.618;1.474;2023-01-26T04:36:04;1.60;99.90
31975;DHT22;18500;43.618;1.474;2023-01-26T04:38:31;1.50;99.90
31975;DHT22;18500;43.618;1.474;2023-01-26T04:40:56;1.50;99.90
31975;DHT22;18500;43.618;1.474;2023-01-26T04:43:22;1.50;99.90
31975;DHT22;18500;43.618;1.474;2023-01-26T04:46:07;1.60;99.90
31975;DHT22;18500;43.618;1.474;2023-01-26T04:48:33;1.60;99.90
31975;DHT22;18500;43.618;1.474;2023-01-26T04:51:05;1.60;99.90
31975;DHT22;18500;43.618;1.474;2023-01-26T04:53:31;1.60;96.50
31975;DHT22;18500;43.618;1.474;2023-01-26T04:55:57;1.60;94.90
31975;DHT22;18500;43.618;1.474;2023-01-26T04:58:23;1.60;93.10
31975;DHT22;18500;43.618;1.474;2023-01-26T05:00:53;1.60;93.50
31975;DHT22;18500;43.618;1.474;2023-01-26T05:03:20;1.60;92.80
31975;DHT22;18500;43.618;1.474;2023-01-26T05:05:51;1.70;92.90
31975;DHT22;18500;43.618;1.474;2023-01-26T05:08:18;1.70;90.20
31975;DHT22;18500;43.618;1.474;2023-01-26T05:10:45;1.70;75.00
31975;DHT22;18500;43.618;1.474;2023-01-26T05:13:10;1.70;69.20
31975;DHT22;18500;43.618;1.474;2023-01-26T05:15:37;1.70;65.90
31975;DHT22;18500;43.618;1.474;2023-01-26T05:18:03;1.70;63.10
31975;DHT22;18500;43.618;1.474;2023-01-26T05:20:30;1.70;58.80
31975;DHT22;18500;43.618;1.474;2023-01-26T05:22:56;1.70;56.30
31975;DHT22;18500;43.618;1.474;2023-01-26T05:25:22;1.80;52.80
31975;DHT22;18500;43.618;1.474;2023-01-26T05:27:48;1.80;50.30
31975;DHT22;18500;43.618;1.474;2023-01-26T05:30:14;1.80;49.20
31975;DHT22;18500;43.618;1.474;2023-01-26T05:32:39;1.80;47.60
31975;DHT22;18500;43.618;1.474;2023-01-26T05:35:06;1.80;47.10
31975;DHT22;18500;43.618;1.474;2023-01-26T05:37:32;1.80;45.40
31975;DHT22;18500;43.618;1.474;2023-01-26T05:39:58;1.80;59.20
31975;DHT22;18500;43.618;1.474;2023-01-26T05:42:24;1.80;43.80
31975;DHT22;18500;43.618;1.474;2023-01-26T05:44:50;1.70;43.40
31975;DHT22;18500;43.618;1.474;2023-01-26T05:47:16;1.80;43.70
31975;DHT22;18500;43.618;1.474;2023-01-26T05:49:42;1.70;45.00
31975;DHT22;18500;43.618;1.474;2023-01-26T05:52:09;1.70;44.00
31975;DHT22;18500;43.618;1.474;2023-01-26T05:54:35;1.80;44.00
31975;DHT22;18500;43.618;1.474;2023-01-26T05:57:02;1.80;43.80
31975;DHT22;18500;43.618;1.474;2023-01-26T05:59:27;1.70;44.00
31975;DHT22;18500;43.618;1.474;2023-01-26T06:01:55;1.70;44.80
31975;DHT22;18500;43.618;1.474;2023-01-26T06:04:21;1.60;46.30
31975;DHT22;18500;43.618;1.474;2023-01-26T06:06:46;1.70;48.20
31975;DHT22;18500;43.618;1.474;2023-01-26T06:09:12;1.70;49.70
31975;DHT22;18500;43.618;1.474;2023-01-26T06:11:38;1.70;49.50
31975;DHT22;18500;43.618;1.474;2023-01-26T06:14:03;1.60;56.40
31975;DHT22;18500;43.618;1.474;2023-01-26T06:16:29;1.60;64.90
31975;DHT22;18500;43.618;1.474;2023-01-26T06:18:55;1.50;78.70
31975;DHT22;18500;43.618;1.474;2023-01-26T06:21:21;1.50;99.90
31975;DHT22;18500;43.618;1.474;2023-01-26T06:23:46;1.50;99.90
31975;DHT22;18500;43.618;1.474;2023-01-26T06:26:12;1.30;99.90
31975;DHT22;18500;43.618;1.474;2023-01-26T06:28:39;1.40;1.00
31975;DHT22;18500;43.618;1.474;2023-01-26T06:31:06;1.50;1.00
31975;DHT22;18500;43.618;1.474;2023-01-26T06:33:34;1.50;1.00
31975;DHT22;18500;43.618;1.474;2023-01-26T06:36:01;1.60;1.00
31975;DHT22;18500;43.618;1.474;2023-01-26T06:38:27;1.60;6.80
31975;DHT22;18500;43.618;1.474;2023-01-26T06:40:53;1.60;31.60
31975;DHT22;18500;43.618;1.474;2023-01-26T06:43:18;1.60;15.00
31975;DHT22;18500;43.618;1.474;2023-01-26T06:45:44;1.60;47.40
31975;DHT22;18500;43.618;1.474;2023-01-26T06:48:11;1.60;80.10
31975;DHT22;18500;43.618;1.474;2023-01-26T06:50:39;1.70;99.90
31975;DHT22;18500;43.618;1.474;2023-01-26T06:53:29;1.70;99.90
31975;DHT22;18500;43.618;1.474;2023-01-26T06:55:57;1.70;99.90
31975;DHT22;18500;43.618;1.474;2023-01-26T06:58:23;1.70;99.90
31975;DHT22;18500;43.618;1.474;2023-01-26T07:00:48;1.70;99.90
31975;DHT22;18500;43.618;1.474;2023-01-26T07:03:14;1.70;99.90
31975;DHT22;18500;43.618;1.474;2023-01-26T07:05:40;1.70;95.90
31975;DHT22;18500;43.618;1.474;2023-01-26T07:08:06;1.70;99.90
31975;DHT22;18500;43.618;1.474;2023-01-26T07:10:34;1.80;99.90
31975;DHT22;18500;43.618;1.474;2023-01-26T07:12:59;1.80;99.90
31975;DHT22;18500;43.618;1.474;2023-01-26T07:15:25;1.70;99.90
31975;DHT22;18500;43.618;1.474;2023-01-26T07:17:51;1.70;97.90
31975;DHT22;18500;43.618;1.474;2023-01-26T07:20:17;1.70;99.90
31975;DHT22;18500;43.618;1.474;2023-01-26T07:22:42;1.80;99.90
31975;DHT22;18500;43.618;1.474;2023-01-26T07:25:08;1.80;99.90
31975;DHT22;18500;43.618;1.474;2023-01-26T07:27:34;1.80;99.90
31975;DHT22;18500;43.618;1.474;2023-01-26T07:29:59;1.80;99.90
31975;DHT22;18500;43.618;1.474;2023-01-26T07:32:25;1.80;99.90
31975;DHT22;18500;43.618;1.474;2023-01-26T07:34:51;1.80;99.90
31975;DHT22;18500;43.618;1.474;2023-01-26T07:37:16;1.80;99.90
31975;DHT22;18500;43.618;1.474;2023-01-26T07:39:42;1.80;99.90
31975;DHT22;18500;43.618;1.474;2023-01-26T07:42:09;1.70;1.00
31975;DHT22;18500;43.618;1.474;2023-01-26T07:44:34;1.80;1.00
31975;DHT22;18500;43.618;1.474;2023-01-26T07:47:00;1.80;1.00
31975;DHT22;18500;43.618;1.474;2023-01-26T07:49:26;1.80;1.00
31975;DHT22;18500;43.618;1.474;2023-01-26T07:51:51;1.80;1.00
31975;DHT22;18500;43.618;1.474;2023-01-26T07:54:18;1.80;1.00
31975;DHT22;18500;43.618;1.474;2023-01-26T07:56:49;1.80;99.90
31975;DHT22;18500;43.618;1.474;2023-01-26T07:59:15;1.80;99.90
31975;DHT22;18500;43.618;1.474;2023-01-26T08:01:40;1.90;99.90
31975;DHT22;18500;43.618;1.474;2023-01-26T08:04:06;1.90;99.90
31975;DHT22;18500;43.618;1.474;2023-01-26T08:06:32;1.90;99.90
31975;DHT22;18500;43.618;1.474;2023-01-26T08:08:57;1.90;99.90
31975;DHT22;18500;43.618;1.474;2023-01-26T08:11:23;2.00;99.90
31975;DHT22;18500;43.618;1.474;2023-01-26T08:13:50;1.90;99.90
31975;DHT22;18500;43.618;1.474;2023-01-26T08:16:16;1.90;99.90
31975;DHT22;18500;43.618;1.474;2023-01-26T08:18:43;1.90;99.90
31975;DHT22;18500;43.618;1.474;2023-01-26T08:21:11;1.90;99.90
31975;DHT22;18500;43.618;1.474;2023-01-26T08:23:37;2.00;99.90
31975;DHT22;18500;43.618;1.474;2023-01-26T08:26:11;2.00;99.90
31975;DHT22;18500;43.618;1.474;2023-01-26T08:28:38;2.00;99.90
31975;DHT22;18500;43.618;1.474;2023-01-26T08:31:05;2.00;99.90
31975;DHT22;18500;43.618;1.474;2023-01-26T08:33:32;2.10;99.90
31975;DHT22;18500;43.618;1.474;2023-01-26T08:36:05;2.10;99.90
31975;DHT22;18500;43.618;1.474;2023-01-26T08:38:32;2.10;99.90
31975;DHT22;18500;43.618;1.474;2023-01-26T08:40:59;2.10;99.90
31975;DHT22;18500;43.618;1.474;2023-01-26T08:43:25;2.10;99.90
31975;DHT22;18500;43.618;1.474;2023-01-26T08:45:51;2.10;99.90
31975;DHT22;18500;43.618;1.474;2023-01-26T08:48:16;2.10;99.90
31975;DHT22;18500;43.618;1.474;2023-01-26T08:50:43;2.10;98.60
31975;DHT22;18500;43.618;1.474;2023-01-26T08:53:08;2.10;97.10
31975;DHT22;18500;43.618;1.474;2023-01-26T08:55:34;2.10;99.20
31975;DHT22;18500;43.618;1.474;2023-01-26T08:58:00;2.10;99.90
31975;DHT22;18500;43.618;1.474;2023-01-26T09:00:26;2.20;93.30
31975;DHT22;18500;43.618;1.474;2023-01-26T09:03:03;2.10;89.10
31975;DHT22;18500;43.618;1.474;2023-01-26T09:05:34;2.20;89.70
31975;DHT22;18500;43.618;1.474;2023-01-26T09:08:01;2.30;87.90
31975;DHT22;18500;43.618;1.474;2023-01-26T09:10:27;2.40;81.70
31975;DHT22;18500;43.618;1.474;2023-01-26T09:12:53;2.30;72.80
31975;DHT22;18500;43.618;1.474;2023-01-26T09:15:18;2.30;67.20
31975;DHT22;18500;43.618;1.474;2023-01-26T09:17:47;2.30;63.30
31975;DHT22;18500;43.618;1.474;2023-01-26T09:20:13;2.40;65.40
31975;DHT22;18500;43.618;1.474;2023-01-26T09:22:38;2.50;58.90
31975;DHT22;18500;43.618;1.474;2023-01-26T09:25:04;2.60;57.10
31975;DHT22;18500;43.618;1.474;2023-01-26T09:27:30;2.60;50.10
31975;DHT22;18500;43.618;1.474;2023-01-26T09:29:56;2.60;43.80
31975;DHT22;18500;43.618;1.474;2023-01-26T09:32:22;2.70;41.40
31975;DHT22;18500;43.618;1.474;2023-01-26T09:34:48;2.70;37.20
31975;DHT22;18500;43.618;1.474;2023-01-26T09:37:14;2.70;34.90
31975;DHT22;18500;43.618;1.474;2023-01-26T09:39:39;2.70;32.10
31975;DHT22;18500;43.618;1.474;2023-01-26T09:45:14;2.70;26.80
31975;DHT22;18500;43.618;1.474;2023-01-26T09:48:15;2.70;24.70
31975;DHT22;18500;43.618;1.474;2023-01-26T09:50:49;2.70;22.10
31975;DHT22;18500;43.618;1.474;2023-01-26T09:53:26;2.90;18.70
31975;DHT22;18500;43.618;1.474;2023-01-26T09:55:54;2.80;19.40
31975;DHT22;18500;43.618;1.474;2023-01-26T09:58:36;2.70;17.10
31975;DHT22;18500;43.618;1.474;2023-01-26T10:01:02;2.60;14.30
31975;DHT22;18500;43.618;1.474;2023-01-26T10:06:22;2.60;15.80
31975;DHT22;18500;43.618;1.474;2023-01-26T10:08:52;2.70;26.20
31975;DHT22;18500;43.618;1.474;2023-01-26T10:11:38;2.90;12.40
31975;DHT22;18500;43.618;1.474;2023-01-26T10:14:20;3.00;12.40
31975;DHT22;18500;43.618;1.474;2023-01-26T10:16:52;3.00;10.00
31975;DHT22;18500;43.618;1.474;2023-01-26T10:21:52;3.10;4.50
31975;DHT22;18500;43.618;1.474;2023-01-26T10:24:21;3.20;4.30
31975;DHT22;18500;43.618;1.474;2023-01-26T10:26:47;3.30;3.20
31975;DHT22;18500;43.618;1.474;2023-01-26T10:29:14;3.20;1.00
31975;DHT22;18500;43.618;1.474;2023-01-26T10:31:43;3.00;1.00
31975;DHT22;18500;43.618;1.474;2023-01-26T10:34:23;2.90;1.00
31975;DHT22;18500;43.618;1.474;2023-01-26T10:36:55;3.00;1.00
31975;DHT22;18500;43.618;1.474;2023-01-26T10:39:23;2.90;1.00
31975;DHT22;18500;43.618;1.474;2023-01-26T10:42:00;3.10;1.00
31975;DHT22;18500;43.618;1.474;2023-01-26T10:44:34;3.10;1.00
31975;DHT22;18500;43.618;1.474;2023-01-26T10:47:15;3.00;1.00
31975;DHT22;18500;43.618;1.474;2023-01-26T10:49:41;2.90;1.00
31975;DHT22;18500;43.618;1.474;2023-01-26T10:52:22;2.90;1.00
31975;DHT22;18500;43.618;1.474;2023-01-26T10:55:08;2.80;1.00
31975;DHT22;18500;43.618;1.474;2023-01-26T10:57:38;2.90;1.00
31975;DHT22;18500;43.618;1.474;2023-01-26T11:00:06;3.00;1.00
31975;DHT22;18500;43.618;1.474;2023-01-26T11:02:52;3.10;1.00
31975;DHT22;18500;43.618;1.474;2023-01-26T11:05:25;3.10;1.00
31975;DHT22;18500;43.618;1.474;2023-01-26T11:07:55;3.20;1.00
31975;DHT22;18500;43.618;1.474;2023-01-26T11:15:38;3.20;1.00
31975;DHT22;18500;43.618;1.474;2023-01-26T11:28:50;3.70;1.00
31975;DHT22;18500;43.618;1.474;2023-01-26T11:51:00;3.30;1.00
31975;DHT22;18500;43.618;1.474;2023-01-26T11:59:31;3.70;1.00
31975;DHT22;18500;43.618;1.474;2023-01-26T12:04:30;3.80;1.00
31975;DHT22;18500;43.618;1.474;2023-01-26T12:07:02;3.80;1.00
31975;DHT22;18500;43.618;1.474;2023-01-26T12:09:31;3.90;1.00
31975;DHT22;18500;43.618;1.474;2023-01-26T12:17:29;4.30;1.00
31975;DHT22;18500;43.618;1.474;2023-01-26T12:20:22;4.40;1.00
31975;DHT22;18500;43.618;1.474;2023-01-26T12:23:23;4.40;1.00
31975;DHT22;18500;43.618;1.474;2023-01-26T12:25:54;4.60;1.00
31975;DHT22;18500;43.618;1.474;2023-01-26T12:33:31;4.30;1.00
31975;DHT22;18500;43.618;1.474;2023-01-26T12:39:12;4.10;1.00
31975;DHT22;18500;43.618;1.474;2023-01-26T12:52:42;4.40;1.00
31975;DHT22;18500;43.618;1.474;2023-01-26T12:55:17;4.50;1.00
31975;DHT22;18500;43.618;1.474;2023-01-26T12:58:04;4.70;1.00
31975;DHT22;18500;43.618;1.474;2023-01-26T13:00:35;4.70;1.00
31975;DHT22;18500;43.618;1.474;2023-01-26T13:03:24;4.90;1.00
31975;DHT22;18500;43.618;1.474;2023-01-26T13:06:16;4.60;1.00
31975;DHT22;18500;43.618;1.474;2023-01-26T13:14:38;4.60;1.00
31975;DHT22;18500;43.618;1.474;2023-01-26T13:19:52;4.10;1.00
31975;DHT22;18500;43.618;1.474;2023-01-26T13:24:48;4.60;1.00
31975;DHT22;18500;43.618;1.474;2023-01-26T13:35:16;4.20;1.00
31975;DHT22;18500;43.618;1.474;2023-01-26T13:45:19;4.20;1.00
31975;DHT22;18500;43.618;1.474;2023-01-26T13:47:49;4.40;1.00
31975;DHT22;18500;43.618;1.474;2023-01-26T13:50:34;4.40;1.00
31975;DHT22;18500;43.618;1.474;2023-01-26T13:53:21;4.50;1.00
31975;DHT22;18500;43.618;1.474;2023-01-26T13:55:52;4.60;1.00
31975;DHT22;18500;43.618;1.474;2023-01-26T13:58:21;4.40;1.00
31975;DHT22;18500;43.618;1.474;2023-01-26T14:01:05;4.50;1.00
31975;DHT22;18500;43.618;1.474;2023-01-26T14:03:31;4.60;1.00
31975;DHT22;18500;43.618;1.474;2023-01-26T14:06:00;4.60;1.00
31975;DHT22;18500;43.618;1.474;2023-01-26T14:08:27;4.50;1.00
31975;DHT22;18500;43.618;1.474;2023-01-26T14:10:54;4.40;1.00
31975;DHT22;18500;43.618;1.474;2023-01-26T14:13:40;4.40;1.00
31975;DHT22;18500;43.618;1.474;2023-01-26T14:16:06;4.20;1.00
31975;DHT22;18500;43.618;1.474;2023-01-26T14:18:33;4.20;1.00
31975;DHT22;18500;43.618;1.474;2023-01-26T14:21:04;4.20;1.00
31975;DHT22;18500;43.618;1.474;2023-01-26T14:23:35;4.10;1.00
31975;DHT22;18500;43.618;1.474;2023-01-26T14:28:36;4.10;1.00
31975;DHT22;18500;43.618;1.474;2023-01-26T14:31:16;3.90;1.00
31975;DHT22;18500;43.618;1.474;2023-01-26T14:33:44;4.00;1.00
31975;DHT22;18500;43.618;1.474;2023-01-26T14:36:15;3.90;1.00
31975;DHT22;18500;43.618;1.474;2023-01-26T14:38:43;3.90;1.00
31975;DHT22;18500;43.618;1.474;2023-01-26T14:41:24;4.00;1.00
31975;DHT22;18500;43.618;1.474;2023-01-26T14:43:52;3.90;1.00
31975;DHT22;18500;43.618;1.474;2023-01-26T14:46:47;4.00;1.00
31975;DHT22;18500;43.618;1.474;2023-01-26T14:50:01;4.10;1.00
31975;DHT22;18500;43.618;1.474;2023-01-26T14:54:43;4.00;1.00
31975;DHT22;18500;43.618;1.474;2023-01-26T14:57:15;4.00;1.00
31975;DHT22;18500;43.618;1.474;2023-01-26T14:59:42;4.10;1.00
31975;DHT22;18500;43.618;1.474;2023-01-26T15:04:56;4.20;1.00
31975;DHT22;18500;43.618;1.474;2023-01-26T15:07:34;4.20;1.00
31975;DHT22;18500;43.618;1.474;2023-01-26T15:10:01;3.90;1.00
31975;DHT22;18500;43.618;1.474;2023-01-26T15:12:31;3.90;1.00
31975;DHT22;18500;43.618;1.474;2023-01-26T15:14:58;3.90;1.00
31975;DHT22;18500;43.618;1.474;2023-01-26T15:17:41;3.90;1.00
31975;DHT22;18500;43.618;1.474;2023-01-26T15:22:56;3.90;1.00
31975;DHT22;18500;43.618;1.474;2023-01-26T15:25:23;3.90;1.00
31975;DHT22;18500;43.618;1.474;2023-01-26T15:27:58;3.80;1.00
31975;DHT22;18500;43.618;1.474;2023-01-26T15:30:33;3.70;1.00
31975;DHT22;18500;43.618;1.474;2023-01-26T15:32:59;3.80;1.00
31975;DHT22;18500;43.618;1.474;2023-01-26T15:35:32;3.90;1.00
31975;DHT22;18500;43.618;1.474;2023-01-26T15:38:10;3.80;1.00
31975;DHT22;18500;43.618;1.474;2023-01-26T15:40:36;3.70;1.00
31975;DHT22;18500;43.618;1.474;2023-01-26T15:45:38;3.70;1.00
31975;DHT22;18500;43.618;1.474;2023-01-26T15:48:04;3.70;1.00
31975;DHT22;18500;43.618;1.474;2023-01-26T15:50:30;3.80;1.00
31975;DHT22;18500;43.618;1.474;2023-01-26T15:52:56;3.80;1.00
31975;DHT22;18500;43.618;1.474;2023-01-26T15:55:26;3.70;1.00
31975;DHT22;18500;43.618;1.474;2023-01-26T15:57:54;3.70;1.00
31975;DHT22;18500;43.618;1.474;2023-01-26T16:00:20;3.70;1.00
31975;DHT22;18500;43.618;1.474;2023-01-26T16:02:48;3.60;1.00
31975;DHT22;18500;43.618;1.474;2023-01-26T16:05:17;3.60;1.00
31975;DHT22;18500;43.618;1.474;2023-01-26T16:07:43;3.60;1.00
31975;DHT22;18500;43.618;1.474;2023-01-26T16:10:09;3.60;1.00
31975;DHT22;18500;43.618;1.474;2023-01-26T16:12:35;3.60;1.00
31975;DHT22;18500;43.618;1.474;2023-01-26T16:15:00;3.50;1.00
31975;DHT22;18500;43.618;1.474;2023-01-26T16:17:26;3.60;1.00
31975;DHT22;18500;43.618;1.474;2023-01-26T16:19:52;3.50;1.00
31975;DHT22;18500;43.618;1.474;2023-01-26T16:22:18;3.30;1.00
31975;DHT22;18500;43.618;1.474;2023-01-26T16:24:45;3.30;1.00
31975;DHT22;18500;43.618;1.474;2023-01-26T16:27:10;3.20;1.00
31975;DHT22;18500;43.618;1.474;2023-01-26T16:29:36;3.20;1.00
31975;DHT22;18500;43.618;1.474;2023-01-26T16:32:14;3.20;1.00
31975;DHT22;18500;43.618;1.474;2023-01-26T16:34:44;3.20;1.00
31975;DHT22;18500;43.618;1.474;2023-01-26T16:37:09;3.10;1.00
31975;DHT22;18500;43.618;1.474;2023-01-26T16:39:35;3.20;1.00
31975;DHT22;18500;43.618;1.474;2023-01-26T16:42:01;3.10;1.00
31975;DHT22;18500;43.618;1.474;2023-01-26T16:44:26;3.10;1.00
31975;DHT22;18500;43.618;1.474;2023-01-26T16:46:52;3.10;1.00
31975;DHT22;18500;43.618;1.474;2023-01-26T16:49:18;3.10;1.00
31975;DHT22;18500;43.618;1.474;2023-01-26T16:51:43;3.10;1.00
31975;DHT22;18500;43.618;1.474;2023-01-26T16:54:10;3.10;1.00
31975;DHT22;18500;43.618;1.474;2023-01-26T16:56:36;3.00;1.00
31975;DHT22;18500;43.618;1.474;2023-01-26T16:59:01;3.00;1.00
31975;DHT22;18500;43.618;1.474;2023-01-26T17:01:31;3.00;1.00
31975;DHT22;18500;43.618;1.474;2023-01-26T17:03:58;3.00;1.00
31975;DHT22;18500;43.618;1.474;2023-01-26T17:06:23;2.90;1.00
31975;DHT22;18500;43.618;1.474;2023-01-26T17:08:49;3.00;1.00
31975;DHT22;18500;43.618;1.474;2023-01-26T17:11:23;2.90;1.00
31975;DHT22;18500;43.618;1.474;2023-01-26T17:13:49;3.00;1.00
31975;DHT22;18500;43.618;1.474;2023-01-26T17:16:18;3.00;1.00
31975;DHT22;18500;43.618;1.474;2023-01-26T17:18:44;2.90;1.00
31975;DHT22;18500;43.618;1.474;2023-01-26T17:21:11;2.90;1.00
31975;DHT22;18500;43.618;1.474;2023-01-26T17:23:37;2.90;1.00
31975;DHT22;18500;43.618;1.474;2023-01-26T17:26:06;2.90;1.00
31975;DHT22;18500;43.618;1.474;2023-01-26T17:28:32;2.80;1.00
31975;DHT22;18500;43.618;1.474;2023-01-26T17:30:58;2.80;1.00
31975;DHT22;18500;43.618;1.474;2023-01-26T17:33:24;2.80;1.00
31975;DHT22;18500;43.618;1.474;2023-01-26T17:35:58;2.80;1.00
31975;DHT22;18500;43.618;1.474;2023-01-26T17:38:24;2.80;1.00
31975;DHT22;18500;43.618;1.474;2023-01-26T17:40:54;2.80;1.00
31975;DHT22;18500;43.618;1.474;2023-01-26T17:43:20;2.70;1.00
31975;DHT22;18500;43.618;1.474;2023-01-26T17:45:46;2.80;1.00
31975;DHT22;18500;43.618;1.474;2023-01-26T17:48:11;2.70;1.00
31975;DHT22;18500;43.618;1.474;2023-01-26T17:50:37;2.60;1.00
31975;DHT22;18500;43.618;1.474;2023-01-26T17:53:03;2.60;1.00
31975;DHT22;18500;43.618;1.474;2023-01-26T17:55:28;2.60;1.00
31975;DHT22;18500;43.618;1.474;2023-01-26T17:57:54;2.60;1.00
31975;DHT22;18500;43.618;1.474;2023-01-26T18:00:20;2.50;1.00
31975;DHT22;18500;43.618;1.474;2023-01-26T18:02:46;2.50;1.00
31975;DHT22;18500;43.618;1.474;2023-01-26T18:05:12;2.60;1.00
31975;DHT22;18500;43.618;1.474;2023-01-26T18:07:38;2.60;1.00
31975;DHT22;18500;43.618;1.474;2023-01-26T18:10:04;2.60;1.00
31975;DHT22;18500;43.618;1.474;2023-01-26T18:12:30;2.50;1.00
31975;DHT22;18500;43.618;1.474;2023-01-26T18:14:57;2.50;1.00